Time;durP1;ratioP1;P1;durP2;ratioP2;P2;SDS_P1;SDS_P2;PMS_P1;PMS_P2;Temp;Humidity;BMP_temperature;BMP_pressure;BME280_temperature;BME280_humidity;BME280_pressure;Samples;Min_cycle;Max_cycle;Signal;HPM_P1;HPM_P2
2021/01/11 00:01:42;;;;;;;34.88;21.02;;;;;;;2.91;100.00;102239.72;4830962;29;20042;-84
2021/01/11 00:04:09;;;;;;;36.47;22.45;;;;;;;2.91;100.00;102231.88;4833250;29;20514;-84
2021/01/11 00:06:38;;;;;;;38.75;23.25;;;;;;;2.90;100.00;102237.97;4844956;29;20382;-85
2021/01/11 00:09:04;;;;;;;37.65;22.52;;;;;;;2.92;100.00;102231.06;4831418;29;20022;-84
2021/01/11 00:11:32;;;;;;;37.67;23.05;;;;;;;2.93;100.00;102237.16;4832516;29;20545;-84
2021/01/11 00:13:57;;;;;;;35.42;22.75;;;;;;;2.85;100.00;102222.25;4829648;29;20044;-84
2021/01/11 00:16:22;;;;;;;39.45;24.33;;;;;;;2.86;100.00;102225.75;4827565;29;20121;-83
2021/01/11 00:18:48;;;;;;;33.95;22.38;;;;;;;2.87;100.00;102227.53;4828027;29;20044;-82
2021/01/11 00:21:14;;;;;;;41.10;23.40;;;;;;;2.89;100.00;102223.19;4831218;29;20038;-83
2021/01/11 00:23:40;;;;;;;38.25;24.30;;;;;;;2.79;100.00;102214.38;4846506;29;20476;-83
2021/01/11 00:26:05;;;;;;;36.63;22.40;;;;;;;2.77;100.00;102205.66;4846923;29;20030;-83
2021/01/11 00:28:30;;;;;;;33.97;22.52;;;;;;;2.74;100.00;102200.41;4828058;29;20090;-83
2021/01/11 00:30:55;;;;;;;38.53;23.20;;;;;;;2.78;100.00;102199.56;4829918;29;20034;-83
2021/01/11 00:33:21;;;;;;;37.03;23.10;;;;;;;2.81;100.00;102196.09;4827397;29;20121;-82
2021/01/11 00:35:46;;;;;;;35.55;22.90;;;;;;;2.80;100.00;102204.81;4842588;29;20037;-86
2021/01/11 00:38:11;;;;;;;39.08;23.77;;;;;;;2.77;100.00;102195.22;4827846;29;20120;-86
2021/01/11 00:40:37;;;;;;;38.80;21.85;;;;;;;2.84;100.00;102197.00;4844686;29;20042;-86
2021/01/11 00:43:03;;;;;;;37.38;23.35;;;;;;;2.72;100.00;102193.44;4834487;29;20459;-85
2021/01/11 00:45:28;;;;;;;34.90;21.88;;;;;;;2.76;100.00;102203.03;4830298;29;20022;-84
2021/01/11 00:47:53;;;;;;;39.22;23.02;;;;;;;2.64;100.00;102182.03;4847216;29;20046;-83
2021/01/11 00:50:18;;;;;;;39.53;23.73;;;;;;;2.72;100.00;102196.91;4829992;29;20055;-83
2021/01/11 00:52:44;;;;;;;41.53;25.15;;;;;;;2.65;100.00;102189.88;4830218;29;20842;-83
2021/01/11 00:55:10;;;;;;;39.17;22.52;;;;;;;2.58;100.00;102180.25;4845386;29;20064;-84
2021/01/11 00:57:35;;;;;;;44.17;26.38;;;;;;;2.64;100.00;102201.19;4824039;29;20095;-85
2021/01/11 01:00:01;;;;;;;41.65;25.25;;;;;;;2.70;100.00;102189.91;4826470;29;20050;-83
2021/01/11 01:02:28;;;;;;;43.22;25.52;;;;;;;2.66;100.00;102194.25;4842566;29;20068;-85
2021/01/11 01:04:54;;;;;;;42.05;24.45;;;;;;;2.63;100.00;102190.72;4824921;29;20037;-85
2021/01/11 01:07:19;;;;;;;42.83;24.67;;;;;;;2.58;100.00;102190.69;4843714;29;20038;-85
2021/01/11 01:09:44;;;;;;;39.88;24.75;;;;;;;2.63;100.00;102194.22;4827321;29;20121;-85
2021/01/11 01:12:10;;;;;;;42.30;24.30;;;;;;;2.66;100.00;102190.75;4825535;29;20609;-85
2021/01/11 01:14:35;;;;;;;43.03;25.23;;;;;;;2.58;100.00;102180.25;4828828;29;20513;-85
2021/01/11 01:17:00;;;;;;;44.25;26.23;;;;;;;2.66;100.00;102189.03;4836672;29;20062;-85
2021/01/11 01:19:26;;;;;;;39.45;24.50;;;;;;;2.55;100.00;102154.97;4841673;29;20124;-84
2021/01/11 01:21:51;;;;;;;39.40;24.48;;;;;;;2.66;100.00;102175.06;4826723;29;20456;-84
2021/01/11 01:24:17;;;;;;;42.88;26.60;;;;;;;2.64;100.00;102167.25;4824238;29;20091;-85
2021/01/11 01:26:42;;;;;;;41.05;24.73;;;;;;;2.60;100.00;102158.50;4823623;29;20131;-85
2021/01/11 01:29:08;;;;;;;42.63;25.45;;;;;;;2.58;100.00;102160.22;4842987;29;20037;-85
2021/01/11 01:31:33;;;;;;;44.67;23.67;;;;;;;2.55;100.00;102157.56;4825833;29;20149;-85
2021/01/11 01:33:58;;;;;;;40.38;22.92;;;;;;;2.59;100.00;102180.25;4843756;29;20037;-85
2021/01/11 01:36:24;;;;;;;41.08;23.83;;;;;;;2.60;100.00;102176.78;4829866;29;20034;-85
2021/01/11 01:38:49;;;;;;;40.13;24.83;;;;;;;2.52;100.00;102172.34;4829393;29;20037;-85
2021/01/11 01:41:14;;;;;;;47.08;27.45;;;;;;;2.61;100.00;102175.06;4827067;29;20042;-85
2021/01/11 01:43:40;;;;;;;43.53;26.27;;;;;;;2.65;100.00;102171.59;4839511;29;20040;-85
2021/01/11 01:46:05;;;;;;;38.30;22.63;;;;;;;2.58;100.00;102180.25;4851351;29;20033;-85
2021/01/11 01:48:31;;;;;;;45.05;25.00;;;;;;;2.62;100.00;102179.41;4832980;29;20048;-85
2021/01/11 01:50:57;;;;;;;47.40;27.25;;;;;;;2.65;100.00;102168.97;4832807;29;20033;-86
2021/01/11 01:53:22;;;;;;;47.70;27.20;;;;;;;2.58;100.00;102161.97;4853377;29;20034;-85
2021/01/11 01:55:49;;;;;;;46.55;25.73;;;;;;;2.60;100.00;102174.16;4834318;29;20091;-85
2021/01/11 01:58:16;;;;;;;50.95;28.08;;;;;;;2.52;100.00;102164.53;4829487;29;20038;-85
2021/01/11 02:00:42;;;;;;;48.00;26.65;;;;;;;2.59;100.00;102164.59;4843940;29;20581;-85
2021/01/11 02:03:07;;;;;;;45.53;25.88;;;;;;;2.58;100.00;102167.19;4844467;29;20045;-82
2021/01/11 02:05:33;;;;;;;51.58;28.65;;;;;;;2.54;100.00;102153.22;4829377;29;20539;-82
2021/01/11 02:08:07;;;;;;;49.95;28.05;;;;;;;2.60;100.00;102158.50;4827131;29;20094;-82
2021/01/11 02:10:48;;;;;;;47.08;25.85;;;;;;;2.63;100.00;102148.97;4829208;29;20022;-82
2021/01/11 02:13:31;;;;;;;52.92;28.92;;;;;;;2.64;100.00;102151.59;4844404;29;20121;-82
2021/01/11 02:16:23;;;;;;;50.95;28.65;;;;;;;2.65;100.00;102152.44;4824885;29;20511;-82
2021/01/11 02:19:26;;;;;;;51.92;28.58;;;;;;;2.65;100.00;102168.97;4827610;29;20746;-82
2021/01/11 02:22:07;;;;;;;50.20;27.65;;;;;;;2.66;100.00;102149.88;4829543;29;20093;-83
2021/01/11 02:24:51;;;;;;;55.63;30.85;;;;;;;2.60;100.00;102160.22;4829273;29;20109;-82
2021/01/11 02:27:16;;;;;;;51.85;29.85;;;;;;;2.63;100.00;102155.06;4824416;29;20065;-83
2021/01/11 02:29:56;;;;;;;50.67;28.30;;;;;;;2.65;100.00;102152.44;4818555;29;20030;-82
2021/01/11 02:32:25;;;;;;;56.30;30.48;;;;;;;2.64;100.00;102146.34;4812906;29;20289;-83
2021/01/11 02:34:54;;;;;;;56.42;28.60;;;;;;;2.68;100.00;102144.66;4814411;29;20065;-82
2021/01/11 02:37:19;;;;;;;61.28;32.30;;;;;;;2.63;100.00;102138.53;4825788;29;20034;-82
2021/01/11 02:39:44;;;;;;;65.07;30.02;;;;;;;2.65;100.00;102129.81;4828869;29;20053;-83
2021/01/11 02:42:09;;;;;;;59.25;30.98;;;;;;;2.59;100.00;102129.78;4833233;29;20033;-83
2021/01/11 02:44:35;;;;;;;60.67;31.13;;;;;;;2.63;100.00;102136.78;4820002;29;20034;-82
2021/01/11 02:47:00;;;;;;;65.03;31.17;;;;;;;2.60;100.00;102131.53;4819224;29;20059;-86
2021/01/11 02:49:29;;;;;;;53.03;28.77;;;;;;;2.60;100.00;102129.78;4817168;29;20697;-85
2021/01/11 02:52:23;;;;;;;64.07;32.90;;;;;;;2.60;100.00;102131.53;4819381;29;20796;-85
2021/01/11 02:54:55;;;;;;;66.55;32.78;;;;;;;2.59;100.00;102130.66;4816509;29;20407;-84
2021/01/11 02:57:32;;;;;;;64.70;33.13;;;;;;;2.54;100.00;102139.31;4832645;29;20030;-85
2021/01/11 03:00:00;;;;;;;61.00;30.80;;;;;;;2.50;100.00;102138.41;4832488;29;20034;-84
2021/01/11 03:02:30;;;;;;;62.88;31.98;;;;;;;2.52;100.00;102148.88;4827552;29;20034;-85
2021/01/11 03:04:56;;;;;;;69.30;33.22;;;;;;;2.55;100.00;102128.88;4834587;29;20030;-84
2021/01/11 03:07:22;;;;;;;58.78;31.15;;;;;;;2.57;100.00;102149.78;4816503;29;20046;-85
2021/01/11 03:09:47;;;;;;;79.10;33.22;;;;;;;2.60;100.00;102150.66;4837057;29;20073;-85
2021/01/11 03:12:13;;;;;;;70.32;34.17;;;;;;;2.59;100.00;102140.22;4821782;29;20029;-85
2021/01/11 03:14:39;;;;;;;68.43;32.50;;;;;;;2.57;100.00;102139.34;4811704;29;20491;-85
2021/01/11 03:17:05;;;;;;;70.93;33.13;;;;;;;2.53;100.00;102138.44;4815643;29;20046;-85
2021/01/11 03:19:30;;;;;;;74.57;31.90;;;;;;;2.51;100.00;102127.13;4811946;29;20031;-85
2021/01/11 03:21:56;;;;;;;70.28;33.08;;;;;;;2.53;100.00;102121.91;4813490;29;20038;-85
2021/01/11 03:24:22;;;;;;;67.28;31.90;;;;;;;2.62;100.00;102137.66;4825011;29;20042;-85
2021/01/11 03:26:49;;;;;;;71.47;33.95;;;;;;;2.54;100.00;102113.19;4814049;29;20038;-85
2021/01/11 03:29:16;;;;;;;70.95;30.42;;;;;;;2.62;100.00;102128.94;4805535;29;20038;-85
2021/01/11 03:31:42;;;;;;;75.88;35.60;;;;;;;2.46;100.00;102096.59;4812547;29;20384;-86
2021/01/11 03:34:08;;;;;;;72.38;31.27;;;;;;;2.50;100.00;102083.59;4813566;29;20031;-85
2021/01/11 03:36:34;;;;;;;71.47;31.63;;;;;;;2.67;100.00;102099.41;4809060;29;20095;-84
2021/01/11 03:39:00;;;;;;;70.45;33.35;;;;;;;2.67;100.00;102101.16;4816575;29;20513;-84
2021/01/11 03:41:25;;;;;;;80.40;35.00;;;;;;;2.72;100.00;102104.66;4813981;29;20034;-84
2021/01/11 03:43:51;;;;;;;71.93;32.58;;;;;;;2.76;100.00;102109.94;4815592;29;20029;-84
2021/01/11 03:46:17;;;;;;;76.90;32.65;;;;;;;2.76;100.00;102101.19;4828571;29;20038;-83
2021/01/11 03:48:43;;;;;;;67.32;33.55;;;;;;;2.89;100.00;102113.50;4811342;29;20057;-84
2021/01/11 03:51:09;;;;;;;69.18;34.08;;;;;;;2.93;100.00;102107.44;4828937;29;20036;-84
2021/01/11 03:53:35;;;;;;;61.03;31.38;;;;;;;2.99;100.00;102120.53;4809351;29;20060;-85
2021/01/11 03:56:06;;;;;;;64.22;32.20;;;;;;;2.99;100.00;102119.66;4831866;29;20235;-83
2021/01/11 03:58:32;;;;;;;61.45;29.63;;;;;;;3.03;100.00;102132.75;4820177;29;20030;-84
2021/01/11 04:00:59;;;;;;;59.53;31.02;;;;;;;3.05;100.00;102110.13;4826147;29;20031;-86
2021/01/11 04:03:25;;;;;;;62.38;29.98;;;;;;;3.11;100.00;102107.56;4836012;29;20857;-86
2021/01/11 04:05:50;;;;;;;56.17;28.67;;;;;;;3.03;100.00;102095.31;4830064;29;20035;-85
2021/01/11 04:08:16;;;;;;;53.08;27.45;;;;;;;3.05;100.00;102083.13;4830802;29;20041;-85
2021/01/11 04:10:41;;;;;;;56.33;29.35;;;;;;;3.16;100.00;102104.97;4813796;29;20093;-85
2021/01/11 04:13:07;;;;;;;58.42;30.02;;;;;;;3.15;100.00;102095.38;4816236;29;20031;-85
2021/01/11 04:15:33;;;;;;;53.70;28.50;;;;;;;3.17;100.00;102091.06;4812294;29;20027;-85
2021/01/11 04:17:59;;;;;;;52.88;29.10;;;;;;;3.13;100.00;102084.06;4806472;29;20045;-86
2021/01/11 04:20:25;;;;;;;53.47;29.58;;;;;;;3.09;100.00;102072.72;4803146;29;20038;-86
2021/01/11 04:22:50;;;;;;;56.45;28.70;;;;;;;3.01;100.00;102060.47;4814908;29;20057;-86
2021/01/11 04:25:16;;;;;;;54.58;28.77;;;;;;;3.20;100.00;102083.22;4823193;29;20464;-87
2021/01/11 04:27:41;;;;;;;52.55;26.95;;;;;;;3.13;100.00;102059.69;4812015;29;20530;-86
2021/01/11 04:30:08;;;;;;;53.38;28.35;;;;;;;3.09;100.00;102050.94;4818084;29;20470;-86
2021/01/11 04:32:41;;;;;;;54.10;27.52;;;;;;;3.03;100.00;102043.94;4820614;29;20088;-87
2021/01/11 04:35:07;;;;;;;51.70;27.23;;;;;;;3.17;100.00;102049.25;4822086;29;20034;-86
2021/01/11 04:37:33;;;;;;;54.20;29.13;;;;;;;3.19;100.00;102057.97;4829018;29;20042;-86
2021/01/11 04:39:58;;;;;;;57.05;32.53;;;;;;;3.17;100.00;102061.44;4817260;29;20222;-86
2021/01/11 04:42:38;;;;;;;43.42;24.17;;;;;;;3.17;100.00;102058.84;4826851;29;20042;-87
2021/01/11 04:45:04;;;;;;;55.20;31.20;;;;;;;2.99;100.00;102052.63;4814939;29;20079;-87
2021/01/11 04:47:30;;;;;;;58.25;32.00;;;;;;;3.11;100.00;102071.00;4818462;29;20117;-87
2021/01/11 04:49:56;;;;;;;56.60;31.10;;;;;;;3.11;100.00;102057.94;4819213;29;20061;-87
2021/01/11 04:52:23;;;;;;;64.40;34.63;;;;;;;2.99;100.00;102049.16;4817446;29;20026;-86
2021/01/11 04:54:51;;;;;;;68.32;34.85;;;;;;;3.08;100.00;102067.50;4818567;29;20463;-86
2021/01/11 04:57:21;;;;;;;54.55;30.73;;;;;;;3.04;100.00;102068.31;4814938;29;20037;-86
2021/01/11 04:59:49;;;;;;;60.95;35.22;;;;;;;3.02;100.00;102057.00;4827249;29;20037;-86
2021/01/11 05:02:21;;;;;;;59.80;29.50;;;;;;;3.04;100.00;102063.97;4828028;29;20068;-86
2021/01/11 05:04:47;;;;;;;56.13;30.83;;;;;;;2.97;100.00;102049.16;4828078;29;20037;-85
2021/01/11 05:07:15;;;;;;;48.75;26.73;;;;;;;3.07;100.00;102056.16;4823656;29;20026;-85
2021/01/11 05:09:44;;;;;;;53.05;27.38;;;;;;;3.05;100.00;102044.81;4824014;29;20030;-83
2021/01/11 05:12:12;;;;;;;47.65;27.63;;;;;;;3.05;100.00;102049.16;4819675;29;20026;-83
2021/01/11 05:14:37;;;;;;;47.13;26.58;;;;;;;3.06;100.00;102054.44;4829948;29;20038;-83
2021/01/11 05:17:04;;;;;;;42.85;26.15;;;;;;;3.10;100.00;102045.72;4818513;29;20037;-83
2021/01/11 05:19:30;;;;;;;40.35;23.85;;;;;;;3.11;100.00;102043.97;4827679;29;20545;-84
2021/01/11 05:21:55;;;;;;;38.33;22.63;;;;;;;3.13;100.00;102038.78;4821999;29;20077;-84
2021/01/11 05:24:45;;;;;;;37.28;21.20;;;;;;;3.13;100.00;102051.84;4837963;29;20109;-85
2021/01/11 05:27:11;;;;;;;40.58;22.73;;;;;;;3.13;100.00;102039.66;4829998;29;20050;-84
2021/01/11 05:29:38;;;;;;;36.78;21.25;;;;;;;3.11;100.00;102039.66;4837107;29;20089;-85
2021/01/11 05:32:09;;;;;;;32.92;19.92;;;;;;;3.15;100.00;102044.88;4847019;29;20038;-85
2021/01/11 05:34:45;;;;;;;32.63;19.80;;;;;;;3.14;100.00;102027.47;4830898;29;20029;-86
2021/01/11 05:37:11;;;;;;;33.03;19.27;;;;;;;3.10;100.00;102029.16;4832212;29;20113;-85
2021/01/11 05:39:36;;;;;;;32.67;20.08;;;;;;;3.02;100.00;102015.22;4833069;29;20106;-85
2021/01/11 05:42:01;;;;;;;28.45;17.40;;;;;;;3.05;100.00;102025.66;4829280;29;20038;-85
2021/01/11 05:44:27;;;;;;;27.63;18.42;;;;;;;3.06;100.00;102023.09;4835911;29;20042;-86
2021/01/11 05:46:52;;;;;;;32.05;20.15;;;;;;;3.15;100.00;102039.66;4831235;29;20574;-85
2021/01/11 05:49:18;;;;;;;29.55;18.77;;;;;;;3.09;100.00;102030.91;4834238;29;20072;-85
2021/01/11 05:51:43;;;;;;;29.92;18.33;;;;;;;3.05;100.00;102018.69;4848972;29;20095;-85
2021/01/11 05:54:24;;;;;;;31.40;18.40;;;;;;;3.05;100.00;102016.09;4833153;29;20022;-84
2021/01/11 05:56:55;;;;;;;28.40;17.95;;;;;;;3.13;100.00;102030.94;4847992;29;20071;-83
2021/01/11 05:59:21;;;;;;;31.38;17.63;;;;;;;3.04;100.00;102029.16;4846692;29;20896;-84
2021/01/11 06:01:46;;;;;;;25.95;15.93;;;;;;;3.11;100.00;102025.69;4842884;29;20030;-85
2021/01/11 06:04:12;;;;;;;32.53;18.52;;;;;;;3.05;100.00;102013.47;4830392;29;20030;-85
2021/01/11 06:06:39;;;;;;;23.08;16.35;;;;;;;3.13;100.00;102021.38;4830798;29;20090;-87
2021/01/11 06:09:06;;;;;;;28.15;16.98;;;;;;;3.16;100.00;102015.25;4827246;29;20041;-87
2021/01/11 06:11:35;;;;;;;24.70;16.13;;;;;;;2.95;100.00;101992.53;4829809;29;20037;-86
2021/01/11 06:14:02;;;;;;;29.17;17.80;;;;;;;3.09;100.00;102014.38;4845655;29;20066;-86
2021/01/11 06:16:28;;;;;;;27.58;16.65;;;;;;;3.01;100.00;101995.16;4824993;29;20064;-86
2021/01/11 06:18:54;;;;;;;26.58;14.90;;;;;;;3.07;100.00;101979.56;4826180;29;20126;-86
2021/01/11 06:21:20;;;;;;;26.98;17.23;;;;;;;3.08;100.00;101986.50;4845305;29;21025;-85
2021/01/11 06:23:46;;;;;;;27.17;17.25;;;;;;;2.98;100.00;101971.66;4830913;29;20041;-84
2021/01/11 06:26:30;;;;;;;25.80;16.05;;;;;;;2.99;100.00;101966.44;4847253;29;20052;-86
2021/01/11 06:29:32;;;;;;;31.58;19.92;;;;;;;3.03;100.00;101976.03;4821803;29;20058;-85
2021/01/11 06:32:21;;;;;;;29.48;18.13;;;;;;;3.10;100.00;101976.94;4814104;29;20034;-86
2021/01/11 06:34:47;;;;;;;31.25;19.45;;;;;;;3.00;100.00;101981.22;4825923;29;20042;-86
2021/01/11 06:37:17;;;;;;;36.60;18.30;;;;;;;3.04;100.00;101971.69;4819172;29;20030;-87
2021/01/11 06:39:44;;;;;;;27.52;18.75;;;;;;;3.03;100.00;101970.81;4822613;29;20045;-87
2021/01/11 06:42:11;;;;;;;31.75;19.50;;;;;;;3.06;100.00;101975.16;4824214;29;20089;-87
2021/01/11 06:44:39;;;;;;;29.67;19.30;;;;;;;3.06;100.00;101978.69;4815171;29;20038;-87
2021/01/11 06:47:04;;;;;;;32.35;16.90;;;;;;;3.08;100.00;101982.16;4817232;29;20026;-84
2021/01/11 06:49:32;;;;;;;27.42;18.80;;;;;;;2.97;100.00;101957.72;4817364;29;20097;-87
2021/01/11 06:52:04;;;;;;;36.55;21.25;;;;;;;3.01;100.00;101955.97;4819871;29;20022;-87
2021/01/11 06:54:38;;;;;;;33.85;21.30;;;;;;;3.00;100.00;101951.63;4817473;29;20045;-87
2021/01/11 06:57:13;;;;;;;32.20;18.98;;;;;;;3.10;100.00;101949.06;4822806;29;20034;-87
2021/01/11 06:59:38;;;;;;;36.55;20.85;;;;;;;3.07;100.00;101950.81;4816062;29;20030;-87
2021/01/11 07:02:18;;;;;;;36.92;21.42;;;;;;;3.07;100.00;101946.47;4815995;29;20543;-86
2021/01/11 07:04:44;;;;;;;31.50;20.67;;;;;;;3.06;100.00;101935.97;4822062;29;20026;-87
2021/01/11 07:07:16;;;;;;;28.05;18.35;;;;;;;3.01;100.00;101927.25;4814765;29;20041;-87
2021/01/11 07:09:50;;;;;;;29.85;18.88;;;;;;;2.98;100.00;101932.50;4823820;29;20038;-87
2021/01/11 07:12:18;;;;;;;30.40;21.08;;;;;;;2.92;100.00;101927.25;4828019;29;20026;-87
2021/01/11 07:15:05;;;;;;;29.45;18.67;;;;;;;2.96;100.00;101948.16;4823147;29;20067;-87
2021/01/11 07:17:48;;;;;;;32.20;19.95;;;;;;;2.94;100.00;101939.44;4819143;29;20833;-87
2021/01/11 07:20:15;;;;;;;32.60;20.10;;;;;;;2.96;100.00;101939.41;4820919;29;20035;-87
2021/01/11 07:22:43;;;;;;;33.85;20.75;;;;;;;2.91;100.00;101926.34;4825381;29;20483;-86
2021/01/11 07:25:17;;;;;;;33.00;20.05;;;;;;;2.95;100.00;101940.28;4815555;29;20022;-87
2021/01/11 07:27:43;;;;;;;34.97;18.75;;;;;;;2.99;100.00;101931.63;4824608;29;20057;-86
2021/01/11 07:30:09;;;;;;;30.67;17.98;;;;;;;2.96;100.00;101913.31;4822132;29;20030;-86
2021/01/11 07:32:34;;;;;;;29.15;17.63;;;;;;;2.89;100.00;101912.41;4846259;29;20022;-86
2021/01/11 07:35:00;;;;;;;29.15;17.83;;;;;;;2.99;100.00;101923.78;4831550;29;20030;-87
2021/01/11 07:37:26;;;;;;;30.85;15.85;;;;;;;2.91;100.00;101917.63;4829518;29;20086;-87
2021/01/11 07:39:51;;;;;;;30.63;18.02;;;;;;;2.99;100.00;101921.16;4829411;29;20052;-88
2021/01/11 07:42:19;;;;;;;29.17;18.05;;;;;;;3.04;100.00;101907.25;4812486;29;20034;-86
2021/01/11 07:44:44;;;;;;;25.88;16.80;;;;;;;3.02;100.00;101922.06;4824554;29;20476;-86
2021/01/11 07:47:12;;;;;;;26.02;15.75;;;;;;;2.99;100.00;101910.72;4841405;29;20087;-87
2021/01/11 07:49:39;;;;;;;20.20;14.05;;;;;;;3.10;100.00;101916.84;4826330;29;20045;-86
2021/01/11 07:52:11;;;;;;;28.33;16.40;;;;;;;3.10;100.00;101915.09;4826555;29;20112;-86
2021/01/11 07:54:40;;;;;;;23.52;15.55;;;;;;;3.08;100.00;101919.47;4841832;29;20041;-84
2021/01/11 07:57:13;;;;;;;31.88;14.43;;;;;;;3.05;100.00;101893.31;4826032;29;20026;-87
2021/01/11 07:59:40;;;;;;;22.17;15.70;;;;;;;3.19;100.00;101908.19;4825779;29;20250;-87
2021/01/11 08:02:12;;;;;;;21.23;13.85;;;;;;;3.19;100.00;101911.66;4825529;29;20034;-86
2021/01/11 08:04:42;;;;;;;25.27;15.55;;;;;;;3.09;100.00;101902.06;4836951;29;20041;-87
2021/01/11 08:07:12;;;;;;;23.23;13.52;;;;;;;3.21;100.00;101901.22;4824994;29;20030;-87
2021/01/11 08:09:39;;;;;;;25.63;15.38;;;;;;;3.23;100.00;101897.75;4819276;29;20095;-86
2021/01/11 08:12:16;;;;;;;21.20;13.32;;;;;;;3.19;100.00;101884.66;4827021;29;20683;-87
2021/01/11 08:14:46;;;;;;;21.20;12.93;;;;;;;3.31;100.00;101903.88;4825513;29;20037;-87
2021/01/11 08:17:19;;;;;;;20.20;10.75;;;;;;;3.36;100.00;101886.47;4824099;29;20069;-87
2021/01/11 08:19:52;;;;;;;21.27;12.50;;;;;;;3.31;100.00;101900.34;4816464;29;20064;-87
2021/01/11 08:22:19;;;;;;;20.65;12.73;;;;;;;3.42;100.00;101918.72;4825806;29;20036;-87
2021/01/11 08:24:49;;;;;;;21.02;13.88;;;;;;;3.35;100.00;101896.88;4822595;29;20026;-87
2021/01/11 08:27:21;;;;;;;18.83;10.73;;;;;;;3.49;100.00;101910.00;4824421;29;20025;-87
2021/01/11 08:29:47;;;;;;;19.33;12.38;;;;;;;3.43;100.00;101904.75;4819909;29;20037;-87
2021/01/11 08:32:37;;;;;;;18.33;11.45;;;;;;;3.54;100.00;101906.50;4822426;29;20041;-87
2021/01/11 08:35:29;;;;;;;14.55;11.00;;;;;;;3.47;100.00;101888.22;4827856;29;20057;-87
2021/01/11 08:37:59;;;;;;;15.38;10.07;;;;;;;3.56;100.00;101911.72;4816725;29;20066;-87
2021/01/11 08:40:32;;;;;;;17.23;10.23;;;;;;;3.42;100.00;101884.72;4839612;29;20044;-87
2021/01/11 08:43:12;;;;;;;16.92;10.75;;;;;;;3.49;100.00;101889.09;4826279;29;20034;-88
2021/01/11 08:45:40;;;;;;;15.73;10.00;;;;;;;3.37;100.00;101877.75;4823169;29;20100;-87
2021/01/11 08:48:08;;;;;;;13.30;9.85;;;;;;;3.53;100.00;101899.53;4822672;29;20090;-87
2021/01/11 08:50:36;;;;;;;13.25;9.18;;;;;;;3.63;100.00;101897.81;4825627;29;20026;-87
2021/01/11 08:53:20;;;;;;;16.33;9.52;;;;;;;3.60;100.00;101882.13;4825643;29;20143;-87
2021/01/11 08:55:53;;;;;;;17.33;9.82;;;;;;;3.72;100.00;101890.00;4826033;29;20033;-87
2021/01/11 08:58:18;;;;;;;12.05;7.80;;;;;;;3.63;100.00;101889.97;4821933;29;20083;-87
2021/01/11 09:00:44;;;;;;;12.80;9.27;;;;;;;3.75;100.00;101910.03;4825086;29;20033;-88
2021/01/11 09:03:09;;;;;;;14.07;9.75;;;;;;;3.73;100.00;101896.09;4815941;29;20038;-86
2021/01/11 09:05:58;;;;;;;13.50;8.82;;;;;;;3.83;100.00;101901.31;4839186;29;20114;-85
2021/01/11 09:09:19;;;;;;;17.10;7.00;;;;;;;3.86;100.00;101901.28;4824763;29;20036;-84
2021/01/11 09:30:19;;;;;;;14.93;8.93;;;;;;;3.95;100.00;101908.28;4804992;24;20059;-86
2021/01/11 09:40:22;;;;;;;15.90;9.80;;;;;;;3.88;100.00;101904.81;4839881;29;20045;-84
2021/01/11 09:43:11;;;;;;;14.73;9.43;;;;;;;3.81;100.00;101892.56;4840837;29;20030;-86
2021/01/11 09:59:16;;;;;;;16.75;10.80;;;;;;;3.76;100.00;101898.69;4843163;29;20057;-84
2021/01/11 10:02:11;;;;;;;18.38;10.70;;;;;;;3.82;100.00;101902.19;4826847;29;20058;-82
2021/01/11 10:10:44;;;;;;;14.93;10.27;;;;;;;3.85;100.00;101901.31;4859269;24;20062;-83
2021/01/11 10:20:08;;;;;;;16.65;10.88;;;;;;;3.94;100.00;101898.69;4822344;24;20050;-85
2021/01/11 10:22:38;;;;;;;14.60;9.70;;;;;;;3.89;100.00;101898.69;4858259;24;20089;-82
2021/01/11 10:25:24;;;;;;;18.27;11.15;;;;;;;3.95;100.00;101889.09;4837755;29;20424;-82
2021/01/11 10:27:56;;;;;;;17.42;10.45;;;;;;;3.91;100.00;101888.22;4837285;29;20548;-83
2021/01/11 10:30:21;;;;;;;17.35;10.00;;;;;;;3.99;100.00;101877.78;4845234;29;20038;-84
2021/01/11 10:33:31;;;;;;;17.88;10.45;;;;;;;3.99;100.00;101878.63;4840136;29;20034;-84
2021/01/11 10:35:57;;;;;;;13.80;9.38;;;;;;;4.03;100.00;101879.53;4826526;29;20125;-82
2021/01/11 10:41:55;;;;;;;24.90;10.65;;;;;;;4.06;100.00;101874.25;4830785;29;20045;-83
2021/01/11 10:45:05;;;;;;;17.60;9.45;;;;;;;4.05;100.00;101859.44;4835956;29;20030;-83
2021/01/11 10:47:31;;;;;;;15.05;9.65;;;;;;;4.13;100.00;101870.78;4821252;29;20036;-80
2021/01/11 10:49:56;;;;;;;16.20;8.93;;;;;;;4.15;100.00;101862.03;4841853;29;20034;-82
2021/01/11 10:52:21;;;;;;;13.02;9.23;;;;;;;4.13;100.00;101849.84;4852705;29;20029;-82
2021/01/11 10:54:46;;;;;;;21.88;10.88;;;;;;;4.12;100.00;101842.88;4824402;29;20054;-81
2021/01/11 10:57:12;;;;;;;15.38;9.23;;;;;;;4.21;100.00;101850.69;4825897;29;20025;-84
2021/01/11 10:59:37;;;;;;;18.40;10.25;;;;;;;4.23;100.00;101828.03;4841281;29;20045;-82
2021/01/11 11:02:03;;;;;;;15.13;8.93;;;;;;;4.21;100.00;101834.13;4829818;29;20091;-82
2021/01/11 11:04:28;;;;;;;20.65;11.05;;;;;;;4.20;100.00;101827.16;4823704;29;20022;-82
2021/01/11 11:06:57;;;;;;;13.85;10.02;;;;;;;4.24;100.00;101829.75;4836361;29;20053;-82
2021/01/11 11:09:22;;;;;;;15.15;9.82;;;;;;;4.25;100.00;101813.19;4831664;29;20053;-81
2021/01/11 11:11:55;;;;;;;18.83;10.60;;;;;;;4.25;100.00;101812.31;4834322;29;20091;-81
2021/01/11 11:14:20;;;;;;;14.65;9.45;;;;;;;4.28;100.00;101805.31;4822713;29;20080;-81
2021/01/11 11:16:46;;;;;;;17.23;9.75;;;;;;;4.29;100.00;101808.81;4842865;29;20351;-81
2021/01/11 11:19:13;;;;;;;18.48;10.70;;;;;;;4.26;100.00;101796.59;4837745;29;20112;-81
2021/01/11 11:21:38;;;;;;;16.00;9.82;;;;;;;4.19;100.00;101805.34;4838864;29;20050;-81
2021/01/11 11:24:03;;;;;;;16.65;9.98;;;;;;;4.18;100.00;101789.66;4826420;29;20439;-83
2021/01/11 11:26:29;;;;;;;18.15;9.30;;;;;;;4.21;100.00;101792.25;4838246;29;20080;-81
2021/01/11 11:28:54;;;;;;;17.95;9.85;;;;;;;4.17;100.00;101778.34;4831817;29;20045;-81
2021/01/11 11:31:21;;;;;;;21.02;9.48;;;;;;;4.13;100.00;101779.22;4830950;29;20042;-83
2021/01/11 11:33:46;;;;;;;18.63;10.73;;;;;;;4.10;100.00;101767.00;4825028;29;20542;-83
2021/01/11 11:36:11;;;;;;;12.90;9.85;;;;;;;4.13;100.00;101767.00;4838452;29;20052;-81
2021/01/11 11:38:37;;;;;;;15.77;11.48;;;;;;;4.19;100.00;101771.34;4843446;29;20040;-82
2021/01/11 11:41:02;;;;;;;18.60;11.93;;;;;;;4.19;100.00;101762.63;4837340;29;20046;-82
2021/01/11 11:43:27;;;;;;;16.35;10.80;;;;;;;4.19;100.00;101760.00;4832582;29;20025;-79
2021/01/11 11:45:52;;;;;;;16.75;9.90;;;;;;;4.23;100.00;101759.97;4833492;29;20022;-80
2021/01/11 11:48:19;;;;;;;22.73;10.10;;;;;;;4.20;100.00;101744.28;4819565;29;20034;-80
2021/01/11 11:50:53;;;;;;;15.40;9.50;;;;;;;4.15;100.00;101730.34;4833106;29;20054;-83
2021/01/11 11:53:18;;;;;;;24.05;10.73;;;;;;;4.27;100.00;101734.69;4826405;29;20038;-83
2021/01/11 11:55:44;;;;;;;15.48;9.77;;;;;;;4.26;100.00;101728.56;4816686;29;20041;-83
2021/01/11 11:58:09;;;;;;;12.85;10.30;;;;;;;4.29;100.00;101732.91;4824003;29;20920;-84
2021/01/11 12:00:34;;;;;;;14.45;9.95;;;;;;;4.27;100.00;101711.13;4830266;29;20118;-84
2021/01/11 12:03:21;;;;;;;17.17;9.15;;;;;;;4.35;100.00;101725.03;4825731;29;20116;-85
2021/01/11 12:05:58;;;;;;;13.70;9.35;;;;;;;4.29;100.00;101696.28;4840297;29;20038;-85
2021/01/11 12:08:46;;;;;;;20.23;9.23;;;;;;;4.44;100.00;101703.19;4794775;29;20064;-85
2021/01/11 12:11:11;;;;;;;19.17;11.82;;;;;;;4.44;100.00;101693.59;4840690;29;20036;-83
2021/01/11 12:13:36;;;;;;;14.98;9.80;;;;;;;4.46;100.00;101697.03;4834910;29;20061;-82
2021/01/11 12:16:02;;;;;;;16.63;8.98;;;;;;;4.48;100.00;101692.69;4820862;29;20101;-81